Time;durP1;ratioP1;P1;durP2;ratioP2;P2;SDS_P1;SDS_P2;PMS_P1;PMS_P2;Temp;Humidity;BMP_temperature;BMP_pressure;BME280_temperature;BME280_humidity;BME280_pressure;Samples;Min_cycle;Max_cycle;Signal;HPM_P1;HPM_P2
2023/01/18 03:02:51;;;;;;;26.83;23.87;;;1.80;99.90;;;;;;4944781;23;20562;-78
2023/01/18 03:05:19;;;;;;;27.80;23.77;;;1.80;99.90;;;;;;4955654;28;20515;-78
2023/01/18 03:07:50;;;;;;;27.67;23.13;;;1.70;99.90;;;;;;4946213;28;20489;-78
2023/01/18 03:10:17;;;;;;;26.77;23.87;;;1.70;99.90;;;;;;4948598;29;20447;-77
2023/01/18 03:12:54;;;;;;;27.70;24.03;;;1.80;99.90;;;;;;4946016;29;20526;-78
2023/01/18 03:15:30;;;;;;;26.27;22.87;;;1.80;99.90;;;;;;4951606;29;20457;-78
2023/01/18 03:18:03;;;;;;;25.27;22.57;;;1.80;99.90;;;;;;4952299;29;20437;-78
2023/01/18 03:20:32;;;;;;;25.03;21.70;;;1.80;99.90;;;;;;4949398;29;20475;-77
2023/01/18 03:25:51;;;;;;;24.50;21.90;;;1.70;99.90;;;;;;4948894;29;20853;-76
2023/01/18 03:34:01;;;;;;;24.47;21.87;;;1.80;99.90;;;;;;4946835;29;20442;-77
2023/01/18 03:36:31;;;;;;;24.87;22.17;;;1.70;99.90;;;;;;4961835;28;20993;-77
2023/01/18 03:39:01;;;;;;;23.87;21.37;;;1.70;99.90;;;;;;4949358;28;20445;-78
2023/01/18 03:41:32;;;;;;;25.20;22.50;;;1.80;99.90;;;;;;4944563;29;20471;-81
2023/01/18 03:44:04;;;;;;;23.03;20.63;;;1.80;99.90;;;;;;4946211;29;20447;-77
2023/01/18 03:46:32;;;;;;;25.17;22.57;;;1.70;99.90;;;;;;4939710;29;20520;-77
2023/01/18 03:49:00;;;;;;;28.20;22.20;;;1.70;99.90;;;;;;4950277;28;20467;-78
2023/01/18 03:51:40;;;;;;;24.90;22.27;;;1.70;99.90;;;;;;4964581;28;20504;-77
2023/01/18 03:54:15;;;;;;;25.80;23.07;;;1.70;99.90;;;;;;4958463;28;20451;-80
2023/01/18 03:56:46;;;;;;;26.10;23.03;;;1.70;99.90;;;;;;4953642;28;20666;-80
2023/01/18 03:59:14;;;;;;;24.90;22.33;;;1.70;99.90;;;;;;4946571;29;20559;-82
2023/01/18 04:01:43;;;;;;;26.87;23.87;;;1.60;99.90;;;;;;4947817;29;20233;-82
2023/01/18 04:04:11;;;;;;;26.50;23.20;;;1.60;99.90;;;;;;4958287;29;20482;-84
2023/01/18 04:06:38;;;;;;;25.93;23.23;;;1.60;99.90;;;;;;4944535;29;20486;-80
2023/01/18 04:09:07;;;;;;;23.37;20.97;;;1.60;99.90;;;;;;4945371;29;20206;-80
2023/01/18 04:11:34;;;;;;;25.97;22.60;;;1.60;99.90;;;;;;4947353;29;20471;-79
2023/01/18 04:14:00;;;;;;;26.37;23.63;;;1.70;99.90;;;;;;4958270;28;20455;-80
2023/01/18 04:16:27;;;;;;;26.37;22.93;;;1.60;99.90;;;;;;4939047;29;20470;-81
2023/01/18 04:18:54;;;;;;;27.40;23.17;;;1.70;99.90;;;;;;4948965;28;20505;-81
2023/01/18 04:21:22;;;;;;;26.00;23.20;;;1.70;99.90;;;;;;4948081;28;20553;-80
2023/01/18 04:23:49;;;;;;;23.50;21.20;;;1.70;99.90;;;;;;4951900;28;20437;-83
2023/01/18 04:26:16;;;;;;;25.30;22.70;;;1.70;99.90;;;;;;4962527;28;20468;-77
2023/01/18 04:28:43;;;;;;;24.20;21.80;;;1.70;99.90;;;;;;4947889;29;21036;-78
2023/01/18 04:31:09;;;;;;;25.10;22.50;;;1.80;99.90;;;;;;4945107;28;20538;-78
2023/01/18 04:33:36;;;;;;;24.03;21.63;;;1.70;99.90;;;;;;4951470;28;20199;-79
2023/01/18 04:36:03;;;;;;;25.77;23.07;;;1.70;99.90;;;;;;4951749;29;20462;-78
2023/01/18 04:38:31;;;;;;;25.80;23.20;;;1.70;99.90;;;;;;4949346;29;21007;-79
2023/01/18 04:41:02;;;;;;;25.70;22.90;;;1.70;99.90;;;;;;4963474;28;21072;-78
2023/01/18 04:43:29;;;;;;;28.00;25.00;;;1.80;99.90;;;;;;4961656;28;20461;-78
2023/01/18 04:45:57;;;;;;;26.37;23.67;;;1.80;99.90;;;;;;4946608;29;20437;-79
2023/01/18 04:48:25;;;;;;;24.93;22.27;;;1.80;99.90;;;;;;4946786;29;20482;-78
2023/01/18 04:50:52;;;;;;;25.93;23.17;;;1.80;99.90;;;;;;4948846;28;20501;-80
2023/01/18 04:53:19;;;;;;;25.83;22.60;;;1.80;99.90;;;;;;4954630;29;20442;-77
2023/01/18 04:55:47;;;;;;;26.63;23.73;;;1.80;99.90;;;;;;4944723;29;20462;-81
2023/01/18 04:58:15;;;;;;;29.10;24.77;;;1.80;99.90;;;;;;4947409;29;20454;-79
2023/01/18 05:00:41;;;;;;;27.93;24.97;;;1.80;99.90;;;;;;4946344;29;20458;-78
2023/01/18 05:03:09;;;;;;;26.63;23.77;;;1.80;99.90;;;;;;4948324;28;20450;-78
2023/01/18 05:05:36;;;;;;;29.37;24.67;;;1.80;99.90;;;;;;4948070;29;20438;-78
2023/01/18 05:08:03;;;;;;;27.53;24.47;;;1.80;99.90;;;;;;4948838;28;20480;-78
2023/01/18 05:10:30;;;;;;;25.50;22.80;;;1.80;99.90;;;;;;4963804;28;21004;-79
2023/01/18 05:12:58;;;;;;;25.43;22.70;;;1.80;99.90;;;;;;4949631;28;20945;-80
2023/01/18 05:15:25;;;;;;;27.20;24.30;;;1.80;99.90;;;;;;4948795;29;20814;-78
2023/01/18 05:17:52;;;;;;;28.57;25.43;;;1.80;99.90;;;;;;4950120;28;20450;-81
2023/01/18 05:20:19;;;;;;;26.73;24.03;;;1.80;99.90;;;;;;4953074;29;20444;-78
2023/01/18 05:22:45;;;;;;;27.77;23.70;;;1.80;99.90;;;;;;4950264;29;20892;-78
2023/01/18 05:25:12;;;;;;;26.20;23.40;;;1.80;99.90;;;;;;4963756;28;20450;-78
2023/01/18 05:27:39;;;;;;;24.90;22.30;;;1.80;99.90;;;;;;4964457;28;20522;-80
2023/01/18 05:30:09;;;;;;;24.60;21.93;;;1.80;99.90;;;;;;4947744;28;20445;-78
2023/01/18 05:32:36;;;;;;;24.73;22.13;;;1.80;99.90;;;;;;4946918;28;20459;-78
2023/01/18 05:35:03;;;;;;;23.57;21.07;;;1.80;99.90;;;;;;4945621;28;20478;-77
2023/01/18 05:37:30;;;;;;;22.77;20.53;;;1.70;99.90;;;;;;4952186;28;21013;-78
2023/01/18 05:39:57;;;;;;;22.53;20.43;;;1.70;99.90;;;;;;4942933;29;20496;-79
2023/01/18 05:42:23;;;;;;;23.30;21.23;;;1.80;99.90;;;;;;4962594;28;20485;-78
2023/01/18 05:44:50;;;;;;;22.87;20.70;;;1.80;99.90;;;;;;4948612;28;20481;-78
2023/01/18 05:47:18;;;;;;;21.63;19.73;;;1.80;99.90;;;;;;4946783;28;20454;-80
2023/01/18 05:49:45;;;;;;;21.53;19.43;;;1.70;99.90;;;;;;4948234;29;20497;-79
2023/01/18 05:52:12;;;;;;;21.30;19.30;;;1.70;99.90;;;;;;4946847;28;20528;-79
2023/01/18 05:54:39;;;;;;;19.87;18.27;;;1.70;99.90;;;;;;4943591;29;20482;-78
2023/01/18 05:57:05;;;;;;;19.17;17.57;;;1.70;99.90;;;;;;4950998;29;20875;-78
2023/01/18 05:59:32;;;;;;;19.13;17.53;;;1.70;99.90;;;;;;4947364;29;20509;-75
2023/01/18 06:01:59;;;;;;;18.57;17.17;;;1.70;99.90;;;;;;4947115;28;20225;-77
2023/01/18 06:04:27;;;;;;;17.77;16.37;;;1.70;99.90;;;;;;4959558;28;20451;-77
2023/01/18 06:06:54;;;;;;;17.43;16.00;;;1.60;99.90;;;;;;4962681;28;20446;-81
2023/01/18 06:09:21;;;;;;;17.87;16.53;;;1.60;99.90;;;;;;4945388;28;20482;-77
2023/01/18 06:11:48;;;;;;;17.03;15.70;;;1.60;99.90;;;;;;4941882;29;20471;-78
2023/01/18 06:14:15;;;;;;;17.90;16.43;;;1.60;99.90;;;;;;4951739;29;20206;-80
2023/01/18 06:16:41;;;;;;;17.10;15.80;;;1.60;99.90;;;;;;4944840;29;20445;-79
2023/01/18 06:19:08;;;;;;;18.70;17.20;;;1.50;99.90;;;;;;4949871;29;20497;-81
2023/01/18 06:21:36;;;;;;;18.43;16.93;;;1.50;99.90;;;;;;4947576;29;20529;-80
2023/01/18 06:24:03;;;;;;;17.30;16.00;;;1.50;99.90;;;;;;4949984;28;20878;-79
2023/01/18 06:26:30;;;;;;;16.97;15.67;;;1.50;99.90;;;;;;4947347;29;20503;-79
2023/01/18 06:28:57;;;;;;;16.90;15.70;;;1.50;99.90;;;;;;4944003;28;20483;-76
2023/01/18 06:31:24;;;;;;;17.27;16.00;;;1.50;99.90;;;;;;4938216;29;20991;-76
2023/01/18 06:33:51;;;;;;;16.97;15.77;;;1.50;99.90;;;;;;4936686;29;20500;-78
2023/01/18 06:36:18;;;;;;;17.40;16.10;;;1.40;99.90;;;;;;4938817;29;20450;-78
2023/01/18 06:38:46;;;;;;;16.90;15.60;;;1.40;99.90;;;;;;4937271;29;20450;-80
2023/01/18 06:41:14;;;;;;;16.50;15.30;;;1.40;99.90;;;;;;4940509;29;20520;-80
2023/01/18 06:43:40;;;;;;;18.17;16.77;;;1.50;99.90;;;;;;4963765;28;20451;-78
2023/01/18 06:46:08;;;;;;;16.43;15.27;;;1.50;99.90;;;;;;4955572;29;20442;-79
2023/01/18 06:48:35;;;;;;;16.73;15.53;;;1.50;99.90;;;;;;4950657;29;20471;-78
2023/01/18 06:51:02;;;;;;;16.63;15.43;;;1.50;99.90;;;;;;4948736;29;20492;-77
2023/01/18 06:53:29;;;;;;;16.53;15.33;;;1.50;99.90;;;;;;4950894;29;20507;-78
2023/01/18 06:56:00;;;;;;;17.53;16.23;;;1.40;99.90;;;;;;4951450;28;20443;-80
2023/01/18 06:58:29;;;;;;;17.67;16.47;;;1.40;99.90;;;;;;4949906;29;20442;-77
2023/01/18 07:00:57;;;;;;;17.50;16.10;;;1.40;99.90;;;;;;4946652;29;20509;-78
2023/01/18 07:03:24;;;;;;;16.70;15.40;;;1.40;99.90;;;;;;4948997;28;21015;-77
2023/01/18 07:05:53;;;;;;;16.13;15.03;;;1.30;99.90;;;;;;4961990;28;20510;-78
2023/01/18 07:08:20;;;;;;;15.67;14.57;;;1.30;99.90;;;;;;4948345;29;20531;-78
2023/01/18 07:10:47;;;;;;;15.10;14.00;;;1.30;99.90;;;;;;4960710;28;20994;-78
2023/01/18 07:13:15;;;;;;;16.57;15.27;;;1.40;99.90;;;;;;4948773;29;20519;-78
2023/01/18 07:15:41;;;;;;;15.27;14.20;;;1.40;99.90;;;;;;4947956;29;20472;-78
2023/01/18 07:18:08;;;;;;;15.70;14.50;;;1.40;99.90;;;;;;4947765;28;20485;-78
2023/01/18 07:20:35;;;;;;;15.40;14.20;;;1.40;99.90;;;;;;4948379;29;20488;-77
2023/01/18 07:23:03;;;;;;;15.97;14.77;;;1.40;99.90;;;;;;4964934;28;20950;-76
2023/01/18 07:25:30;;;;;;;15.77;14.63;;;1.40;99.90;;;;;;4964597;28;20453;-77
2023/01/18 07:27:57;;;;;;;15.23;14.03;;;1.50;99.90;;;;;;4948207;28;20761;-77
2023/01/18 07:30:25;;;;;;;15.80;14.70;;;1.50;99.90;;;;;;4945624;28;20437;-77
2023/01/18 07:32:53;;;;;;;15.20;14.10;;;1.50;99.90;;;;;;4949972;28;20441;-80
2023/01/18 07:35:21;;;;;;;16.13;15.03;;;1.50;99.90;;;;;;4955601;29;20506;-81
2023/01/18 07:37:49;;;;;;;16.17;14.97;;;1.50;99.90;;;;;;4954725;29;20545;-81
2023/01/18 07:40:16;;;;;;;15.70;14.60;;;1.50;99.90;;;;;;4968138;28;20532;-82
2023/01/18 07:42:43;;;;;;;15.60;14.40;;;1.50;99.90;;;;;;4955002;28;21060;-80
2023/01/18 07:45:12;;;;;;;15.20;14.10;;;1.60;99.90;;;;;;4952247;28;20447;-82
2023/01/18 07:47:40;;;;;;;15.63;14.53;;;1.60;99.90;;;;;;4964679;28;21034;-78
2023/01/18 07:50:08;;;;;;;15.47;14.37;;;1.60;99.90;;;;;;4960748;28;20514;-78
2023/01/18 07:52:35;;;;;;;15.80;14.70;;;1.60;99.90;;;;;;4947168;28;20970;-78
2023/01/18 07:55:02;;;;;;;16.10;14.93;;;1.60;99.90;;;;;;4944227;29;20450;-77
2023/01/18 07:57:29;;;;;;;15.43;14.27;;;1.60;99.90;;;;;;4949954;28;20958;-78
2023/01/18 07:59:56;;;;;;;15.67;14.47;;;1.60;99.90;;;;;;4949691;28;20430;-78
2023/01/18 08:02:23;;;;;;;16.07;14.87;;;1.60;99.90;;;;;;4946041;28;20481;-78
2023/01/18 08:04:51;;;;;;;15.63;14.47;;;1.60;99.90;;;;;;4950895;28;20457;-78
2023/01/18 08:07:18;;;;;;;16.13;14.87;;;1.60;99.90;;;;;;4949213;28;20496;-78
2023/01/18 08:09:45;;;;;;;16.00;14.80;;;1.60;99.90;;;;;;4960020;28;20493;-77
2023/01/18 08:12:16;;;;;;;16.23;14.97;;;1.60;99.90;;;;;;4947289;29;20518;-78
2023/01/18 08:14:43;;;;;;;15.17;14.10;;;1.70;99.90;;;;;;4948224;28;20451;-78
2023/01/18 08:17:10;;;;;;;17.00;15.80;;;1.70;99.90;;;;;;4951326;29;20445;-77
2023/01/18 08:19:37;;;;;;;16.33;15.23;;;1.80;99.90;;;;;;4947154;29;20456;-76
2023/01/18 08:22:06;;;;;;;15.53;14.43;;;1.80;99.90;;;;;;4949540;28;20458;-80
2023/01/18 08:24:32;;;;;;;15.40;14.30;;;1.80;99.90;;;;;;4963242;28;20485;-79
2023/01/18 08:26:59;;;;;;;15.53;14.20;;;1.70;99.90;;;;;;4948867;28;20860;-78
2023/01/18 08:29:26;;;;;;;14.90;13.77;;;1.80;99.90;;;;;;4946610;29;20509;-78
2023/01/18 08:31:53;;;;;;;15.03;13.93;;;1.70;99.90;;;;;;4947156;28;20509;-78
2023/01/18 08:34:20;;;;;;;14.90;13.90;;;1.70;99.90;;;;;;4950319;29;20871;-78
2023/01/18 08:36:49;;;;;;;14.57;13.47;;;1.70;99.90;;;;;;4947566;29;20463;-78
2023/01/18 08:39:17;;;;;;;14.60;13.50;;;1.60;99.90;;;;;;4961965;28;20485;-78
2023/01/18 08:41:45;;;;;;;15.40;13.97;;;1.60;99.90;;;;;;4963015;28;20481;-78
2023/01/18 08:44:12;;;;;;;18.10;13.57;;;1.60;99.90;;;;;;4948390;28;20435;-78
2023/01/18 08:46:39;;;;;;;15.57;14.37;;;1.70;99.90;;;;;;4951468;28;20537;-78
2023/01/18 08:49:06;;;;;;;15.10;13.93;;;1.70;99.90;;;;;;4944575;29;20896;-77
2023/01/18 08:51:33;;;;;;;14.67;13.67;;;1.80;99.90;;;;;;4949654;28;20474;-78
2023/01/18 08:54:00;;;;;;;15.63;14.53;;;1.90;99.90;;;;;;4944995;29;20441;-79
2023/01/18 08:56:28;;;;;;;15.70;14.57;;;2.00;99.90;;;;;;4947586;28;20439;-78
2023/01/18 08:58:56;;;;;;;15.90;14.53;;;2.10;99.90;;;;;;4947063;28;20202;-78
2023/01/18 09:01:23;;;;;;;15.13;14.10;;;2.10;99.90;;;;;;4942594;28;20486;-78
2023/01/18 09:03:50;;;;;;;15.00;13.80;;;2.10;99.90;;;;;;4947829;28;20523;-77
2023/01/18 09:06:17;;;;;;;14.17;13.20;;;2.10;99.90;;;;;;4945724;29;20459;-78
2023/01/18 09:08:47;;;;;;;14.37;13.33;;;2.10;99.90;;;;;;4962750;28;20474;-78
2023/01/18 09:11:16;;;;;;;14.83;13.70;;;2.10;99.90;;;;;;4961600;28;20466;-77
2023/01/18 09:13:45;;;;;;;14.20;13.20;;;2.10;99.90;;;;;;4963943;28;20199;-78
2023/01/18 09:16:13;;;;;;;14.90;13.90;;;2.10;99.90;;;;;;4947632;28;20525;-77
2023/01/18 09:18:39;;;;;;;14.70;13.60;;;2.20;99.90;;;;;;4947975;28;20436;-77
2023/01/18 09:21:07;;;;;;;14.00;13.00;;;2.20;99.90;;;;;;4944473;28;20459;-78
2023/01/18 09:23:34;;;;;;;14.60;13.50;;;2.10;99.90;;;;;;4949509;28;20494;-78
2023/01/18 09:26:03;;;;;;;14.07;13.07;;;2.10;99.90;;;;;;4951504;29;20509;-79
2023/01/18 09:28:30;;;;;;;14.03;13.03;;;2.10;99.90;;;;;;4955196;28;21048;-79
2023/01/18 09:31:01;;;;;;;14.30;13.30;;;2.10;99.90;;;;;;4947162;28;20257;-78
2023/01/18 09:33:28;;;;;;;13.63;12.73;;;2.20;99.90;;;;;;4962574;28;20686;-78
2023/01/18 09:35:56;;;;;;;13.87;12.87;;;2.20;99.90;;;;;;4943431;29;20192;-78
2023/01/18 09:38:23;;;;;;;14.20;13.10;;;2.20;99.90;;;;;;4947412;29;20269;-79
2023/01/18 09:40:52;;;;;;;14.80;13.53;;;2.20;99.90;;;;;;4945038;28;20223;-78
2023/01/18 09:43:26;;;;;;;14.73;13.73;;;2.20;99.90;;;;;;4950677;29;20930;-77
2023/01/18 09:45:54;;;;;;;14.10;13.10;;;2.20;99.90;;;;;;4949329;29;20227;-77
2023/01/18 09:48:29;;;;;;;14.77;13.67;;;2.20;99.90;;;;;;4947425;28;20202;-79
2023/01/18 09:51:01;;;;;;;14.20;13.00;;;2.10;99.90;;;;;;4961706;28;20710;-79
2023/01/18 09:53:45;;;;;;;14.00;13.00;;;2.20;99.90;;;;;;4947515;28;20518;-77
2023/01/18 09:56:18;;;;;;;14.03;12.93;;;2.20;99.90;;;;;;4946301;28;20195;-78
2023/01/18 09:58:57;;;;;;;13.77;12.80;;;2.20;99.90;;;;;;4943618;29;20451;-79
2023/01/18 10:01:27;;;;;;;14.00;13.00;;;2.20;99.90;;;;;;4946409;29;20226;-78
2023/01/18 10:03:59;;;;;;;13.40;12.50;;;2.30;99.90;;;;;;4947368;28;20449;-79
2023/01/18 10:06:30;;;;;;;13.40;12.50;;;2.30;99.90;;;;;;4943406;29;20206;-79
2023/01/18 10:09:03;;;;;;;13.27;12.27;;;2.30;99.90;;;;;;4952487;28;20262;-78
2023/01/18 10:11:41;;;;;;;13.83;12.63;;;2.40;99.90;;;;;;4952699;28;20227;-77
2023/01/18 10:14:17;;;;;;;13.83;12.80;;;2.40;99.90;;;;;;4959855;28;20294;-78
2023/01/18 10:16:50;;;;;;;14.10;13.00;;;2.40;99.90;;;;;;4945840;28;20583;-77
2023/01/18 10:19:24;;;;;;;13.70;12.70;;;2.40;99.90;;;;;;4947922;28;20258;-79
2023/01/18 10:21:57;;;;;;;14.87;13.60;;;2.50;99.90;;;;;;4948444;29;20236;-78
2023/01/18 10:24:44;;;;;;;14.17;13.17;;;2.60;99.90;;;;;;4945429;28;20195;-79
2023/01/18 10:27:37;;;;;;;15.07;13.97;;;2.60;99.90;;;;;;4946230;28;20190;-76
2023/01/18 10:30:17;;;;;;;14.67;13.67;;;2.70;99.90;;;;;;4939350;29;20227;-78
2023/01/18 10:32:51;;;;;;;15.97;14.77;;;2.70;99.90;;;;;;4942333;29;20219;-78
2023/01/18 10:35:30;;;;;;;18.67;17.20;;;2.70;99.90;;;;;;4944115;29;20628;-77
2023/01/18 10:38:01;;;;;;;14.57;13.67;;;2.70;99.90;;;;;;4945928;28;20202;-79
2023/01/18 10:40:27;;;;;;;14.53;13.53;;;2.60;99.90;;;;;;4943236;29;20771;-79
2023/01/18 10:42:58;;;;;;;15.03;13.93;;;2.60;99.90;;;;;;4945238;28;20316;-78
2023/01/18 10:45:27;;;;;;;14.73;13.73;;;2.70;99.90;;;;;;4949726;29;20207;-78
2023/01/18 10:47:55;;;;;;;15.50;14.30;;;2.70;99.90;;;;;;4941456;29;20269;-78
2023/01/18 10:50:34;;;;;;;14.50;13.50;;;2.80;99.90;;;;;;4941857;28;20341;-78
2023/01/18 10:53:20;;;;;;;14.97;13.83;;;2.80;99.90;;;;;;4941323;28;20203;-79
2023/01/18 10:55:54;;;;;;;14.90;13.80;;;2.80;99.90;;;;;;4942823;29;20707;-78
2023/01/18 10:58:27;;;;;;;14.10;13.00;;;2.80;99.90;;;;;;4949391;29;20195;-79
2023/01/18 11:00:54;;;;;;;14.33;13.33;;;2.70;99.90;;;;;;4946254;29;20278;-78
2023/01/18 11:03:22;;;;;;;15.17;13.87;;;2.60;99.90;;;;;;4958941;28;20199;-79
2023/01/18 11:05:50;;;;;;;13.80;12.80;;;2.60;99.90;;;;;;4947073;29;20205;-78
2023/01/18 11:08:23;;;;;;;13.60;12.70;;;2.60;99.90;;;;;;4942608;28;20207;-78
2023/01/18 11:10:59;;;;;;;14.30;13.30;;;2.60;99.90;;;;;;4941518;28;20514;-78
2023/01/18 11:13:29;;;;;;;15.20;14.00;;;2.60;99.90;;;;;;4945185;29;20431;-78
2023/01/18 11:16:11;;;;;;;14.93;13.90;;;2.60;99.90;;;;;;4944165;29;20199;-78
2023/01/18 11:18:39;;;;;;;14.50;13.43;;;2.50;99.90;;;;;;4943611;29;20499;-79
2023/01/18 11:21:11;;;;;;;14.40;13.40;;;2.50;99.90;;;;;;4947518;29;20306;-78
2023/01/18 11:23:39;;;;;;;14.70;13.70;;;2.50;99.90;;;;;;4946649;29;20205;-78
2023/01/18 11:26:13;;;;;;;14.53;13.43;;;2.40;99.90;;;;;;4960804;28;20549;-79
2023/01/18 11:28:45;;;;;;;14.87;13.57;;;2.40;99.90;;;;;;4944882;29;20235;-78
2023/01/18 11:31:15;;;;;;;14.30;13.30;;;2.40;99.90;;;;;;4948037;28;20218;-77
2023/01/18 11:33:50;;;;;;;14.63;13.53;;;2.30;99.90;;;;;;4950132;29;20199;-79
2023/01/18 11:36:20;;;;;;;14.03;13.03;;;2.30;99.90;;;;;;4948803;28;20203;-79
2023/01/18 11:38:47;;;;;;;13.70;12.80;;;2.30;99.90;;;;;;4952072;28;20435;-78
2023/01/18 11:41:18;;;;;;;14.80;13.80;;;2.30;99.90;;;;;;4946695;29;21040;-78
2023/01/18 11:44:04;;;;;;;14.73;13.53;;;2.40;99.90;;;;;;4964056;28;20236;-79
2023/01/18 11:46:37;;;;;;;14.07;13.17;;;2.40;99.90;;;;;;4941603;29;20207;-79
2023/01/18 11:49:20;;;;;;;13.27;12.37;;;2.30;99.90;;;;;;4951843;28;20207;-79
2023/01/18 11:51:51;;;;;;;13.80;12.80;;;2.30;99.90;;;;;;4947681;28;20225;-77
2023/01/18 11:54:26;;;;;;;13.53;12.43;;;2.40;99.90;;;;;;4961965;28;20446;-78
2023/01/18 11:56:55;;;;;;;13.57;12.57;;;2.40;99.90;;;;;;4947929;29;20210;-78
2023/01/18 11:59:28;;;;;;;14.03;13.03;;;2.50;99.90;;;;;;4961196;28;20195;-76
2023/01/18 12:02:35;;;;;;;14.20;13.30;;;2.50;99.90;;;;;;4944814;29;20465;-78
2023/01/18 12:05:27;;;;;;;15.37;14.27;;;2.50;99.90;;;;;;4944369;28;20206;-78
2023/01/18 12:08:07;;;;;;;14.43;13.33;;;2.60;99.90;;;;;;4951589;29;20745;-77
2023/01/18 12:10:43;;;;;;;13.97;13.07;;;2.60;99.90;;;;;;4945204;28;20211;-79
2023/01/18 12:13:32;;;;;;;13.63;12.73;;;2.60;99.90;;;;;;4962236;28;20191;-77
2023/01/18 12:16:15;;;;;;;13.73;12.73;;;2.60;99.90;;;;;;4944590;29;20200;-78
2023/01/18 12:19:18;;;;;;;13.77;12.87;;;2.70;99.90;;;;;;4945277;29;20195;-79
2023/01/18 12:21:55;;;;;;;13.97;13.07;;;2.80;99.90;;;;;;4946919;29;20695;-80
2023/01/18 12:24:37;;;;;;;14.57;13.57;;;2.90;99.90;;;;;;4961572;28;20202;-80
2023/01/18 12:27:09;;;;;;;15.30;14.23;;;2.80;99.90;;;;;;4936664;29;20583;-80
2023/01/18 12:29:54;;;;;;;14.37;13.37;;;2.70;99.90;;;;;;4945492;29;20278;-80
2023/01/18 12:32:42;;;;;;;14.37;13.37;;;2.70;99.90;;;;;;4949962;29;20227;-79
2023/01/18 12:35:32;;;;;;;14.37;13.27;;;2.70;99.90;;;;;;4946464;28;20227;-79
2023/01/18 12:38:11;;;;;;;13.70;12.70;;;2.60;99.90;;;;;;4940636;29;20199;-80
2023/01/18 12:40:53;;;;;;;14.27;13.17;;;2.60;99.90;;;;;;4947710;28;20191;-77
2023/01/18 12:43:33;;;;;;;13.50;12.60;;;2.60;99.90;;;;;;4946899;28;20494;-79
2023/01/18 12:46:05;;;;;;;13.63;12.73;;;2.60;99.90;;;;;;4946070;29;20683;-80
2023/01/18 12:48:39;;;;;;;13.37;12.50;;;2.60;99.90;;;;;;4945035;29;20533;-79
2023/01/18 12:51:12;;;;;;;13.00;12.10;;;2.50;99.90;;;;;;4946404;29;20816;-80
2023/01/18 12:53:44;;;;;;;13.80;12.80;;;2.50;99.90;;;;;;4966910;28;20207;-79
2023/01/18 12:56:18;;;;;;;13.27;12.37;;;2.50;99.90;;;;;;4946288;29;20203;-79
2023/01/18 12:58:49;;;;;;;13.97;12.90;;;2.60;99.90;;;;;;4948368;28;20202;-80
2023/01/18 13:01:20;;;;;;;13.10;12.20;;;2.60;99.90;;;;;;4948332;29;20279;-79
2023/01/18 13:03:50;;;;;;;13.87;12.90;;;2.60;99.90;;;;;;4964301;28;20205;-79
2023/01/18 13:06:19;;;;;;;13.50;12.50;;;2.60;99.90;;;;;;4962754;28;20253;-81
2023/01/18 13:08:53;;;;;;;13.70;12.70;;;2.60;99.90;;;;;;4963994;28;20246;-80
2023/01/18 13:11:24;;;;;;;14.47;13.47;;;2.60;99.90;;;;;;4946598;28;20301;-81
2023/01/18 13:13:59;;;;;;;14.30;13.20;;;2.70;99.90;;;;;;4951195;29;20580;-80
2023/01/18 13:16:38;;;;;;;15.27;14.10;;;2.60;99.90;;;;;;4945423;28;20190;-80
2023/01/18 13:19:08;;;;;;;15.53;14.43;;;2.60;99.90;;;;;;4955872;28;20222;-80
2023/01/18 13:21:52;;;;;;;15.97;14.70;;;2.50;99.90;;;;;;4945567;29;20766;-80
2023/01/18 13:24:35;;;;;;;16.17;14.90;;;2.50;99.90;;;;;;4952680;29;20205;-79
2023/01/18 13:27:12;;;;;;;15.80;14.50;;;2.50;99.90;;;;;;4944527;29;20235;-80
2023/01/18 13:29:40;;;;;;;16.47;14.87;;;2.40;99.90;;;;;;4941451;29;20735;-81
2023/01/18 13:32:27;;;;;;;16.07;14.77;;;2.40;99.90;;;;;;4950404;28;20255;-80
2023/01/18 13:34:59;;;;;;;16.70;15.20;;;2.40;99.90;;;;;;4956342;28;20672;-80
2023/01/18 13:37:44;;;;;;;15.63;14.43;;;2.40;99.90;;;;;;4951535;29;20848;-80
2023/01/18 13:40:34;;;;;;;15.37;14.27;;;2.40;99.90;;;;;;4951433;29;20935;-79
2023/01/18 13:43:04;;;;;;;15.73;14.53;;;2.40;99.90;;;;;;4951629;29;20302;-80
2023/01/18 13:45:32;;;;;;;14.70;13.60;;;2.40;99.90;;;;;;4943499;29;20463;-80
2023/01/18 13:48:03;;;;;;;15.77;14.50;;;2.40;99.90;;;;;;4949639;29;20671;-80
2023/01/18 13:50:47;;;;;;;16.17;14.87;;;2.50;99.90;;;;;;4946643;29;20562;-80
2023/01/18 13:53:23;;;;;;;15.43;14.30;;;2.50;99.90;;;;;;4961230;28;20889;-81
2023/01/18 13:56:24;;;;;;;15.93;14.73;;;2.50;99.90;;;;;;4951053;29;20477;-80
2023/01/18 13:59:02;;;;;;;15.40;14.30;;;2.50;99.90;;;;;;4946343;29;20581;-82
2023/01/18 14:01:33;;;;;;;17.00;15.60;;;2.60;99.90;;;;;;4945062;29;20514;-81
2023/01/18 14:04:24;;;;;;;16.00;14.80;;;2.60;99.90;;;;;;4946984;29;20203;-78
2023/01/18 14:06:52;;;;;;;16.17;14.87;;;2.50;99.90;;;;;;4938737;29;20235;-80
2023/01/18 14:09:31;;;;;;;16.57;15.27;;;2.60;99.90;;;;;;4941553;29;20242;-78
2023/01/18 14:11:59;;;;;;;16.73;15.27;;;2.60;99.90;;;;;;4940610;28;20278;-82
2023/01/18 14:14:30;;;;;;;16.37;14.97;;;2.60;99.90;;;;;;4944163;29;20588;-79
2023/01/18 14:17:00;;;;;;;15.90;14.47;;;2.60;99.90;;;;;;4950848;29;20194;-79
2023/01/18 14:19:29;;;;;;;16.73;15.37;;;2.50;99.90;;;;;;4944586;29;20187;-80
2023/01/18 14:22:20;;;;;;;15.90;14.63;;;2.50;99.90;;;;;;4945990;29;20207;-81
2023/01/18 14:25:16;;;;;;;15.60;14.50;;;2.50;99.90;;;;;;4939612;29;20243;-80
2023/01/18 14:27:47;;;;;;;15.70;14.40;;;2.50;99.90;;;;;;4954828;28;20211;-76
2023/01/18 14:30:26;;;;;;;16.00;14.73;;;2.50;99.90;;;;;;4936862;29;20218;-77
2023/01/18 14:32:58;;;;;;;16.27;15.00;;;2.50;99.90;;;;;;4937408;29;20755;-78
2023/01/18 14:35:25;;;;;;;16.40;15.10;;;2.50;99.90;;;;;;4935542;29;20967;-78
2023/01/18 14:37:51;;;;;;;14.47;13.33;;;2.50;99.90;;;;;;4942843;29;20278;-78
2023/01/18 14:40:25;;;;;;;14.97;13.77;;;2.50;99.90;;;;;;4942516;29;20206;-79
2023/01/18 14:42:54;;;;;;;14.70;13.50;;;2.40;99.90;;;;;;4942237;29;20198;-81
2023/01/18 14:45:27;;;;;;;15.80;14.30;;;2.40;99.90;;;;;;4946554;29;20459;-79
2023/01/18 14:47:55;;;;;;;14.80;13.50;;;2.40;99.90;;;;;;4941196;29;20210;-85
2023/01/18 14:50:24;;;;;;;14.40;13.30;;;2.40;99.90;;;;;;4941862;29;20510;-78
2023/01/18 14:52:53;;;;;;;14.30;13.10;;;2.40;99.90;;;;;;4940036;29;20251;-81
2023/01/18 14:55:25;;;;;;;13.57;12.60;;;2.40;99.90;;;;;;4933380;28;20703;-78
2023/01/18 14:57:52;;;;;;;14.57;13.27;;;2.40;99.90;;;;;;4934760;29;20459;-78
2023/01/18 15:00:22;;;;;;;14.43;13.33;;;2.40;99.90;;;;;;4937099;28;20299;-77
2023/01/18 15:02:50;;;;;;;14.53;13.40;;;2.40;99.90;;;;;;4942777;29;20526;-77
2023/01/18 15:05:19;;;;;;;14.13;13.07;;;2.40;99.90;;;;;;4938427;29;20462;-79
2023/01/18 15:07:52;;;;;;;15.73;14.23;;;2.40;99.90;;;;;;4943331;29;20211;-78
2023/01/18 15:10:19;;;;;;;14.53;13.40;;;2.40;99.90;;;;;;4952049;29;20214;-79
2023/01/18 15:12:50;;;;;;;41.73;26.40;;;2.40;99.90;;;;;;4944234;29;20245;-80
2023/01/18 15:15:23;;;;;;;37.37;21.90;;;2.40;99.90;;;;;;4955308;29;20258;-81
2023/01/18 15:17:54;;;;;;;26.27;18.53;;;2.30;99.90;;;;;;4947755;28;20207;-80
2023/01/18 15:20:21;;;;;;;35.20;23.13;;;2.40;99.90;;;;;;4941658;28;20438;-78
2023/01/18 15:22:49;;;;;;;68.40;35.53;;;2.30;99.90;;;;;;4944228;29;20471;-78
2023/01/18 15:25:20;;;;;;;34.73;23.97;;;2.30;99.90;;;;;;4945832;29;20232;-79
2023/01/18 15:27:50;;;;;;;20.60;17.77;;;2.30;99.90;;;;;;4942582;28;20447;-80
2023/01/18 15:30:21;;;;;;;18.40;16.47;;;2.30;99.90;;;;;;4941882;29;20469;-79
2023/01/18 15:32:50;;;;;;;16.40;14.87;;;2.20;99.90;;;;;;4942444;29;20473;-78
2023/01/18 15:35:19;;;;;;;14.17;13.07;;;2.20;99.90;;;;;;4937283;29;20451;-78
2023/01/18 15:37:45;;;;;;;14.10;12.87;;;2.10;99.90;;;;;;4940146;28;20522;-79
2023/01/18 15:40:25;;;;;;;13.23;12.27;;;2.20;99.90;;;;;;4961457;28;20937;-76
2023/01/18 15:43:03;;;;;;;13.87;12.73;;;2.10;99.90;;;;;;4953839;28;20452;-79
2023/01/18 15:45:31;;;;;;;13.87;12.77;;;2.00;99.90;;;;;;4942590;29;20536;-78
2023/01/18 15:48:00;;;;;;;13.00;12.10;;;1.90;99.90;;;;;;4943913;28;20443;-78
2023/01/18 15:50:34;;;;;;;13.37;12.37;;;1.90;99.90;;;;;;4948558;29;20509;-79
2023/01/18 15:53:10;;;;;;;14.03;12.83;;;1.80;99.90;;;;;;4965921;28;20512;-79
2023/01/18 15:55:40;;;;;;;13.47;12.47;;;1.80;99.90;;;;;;4945097;29;20501;-78
2023/01/18 15:58:12;;;;;;;12.80;11.90;;;1.80;99.90;;;;;;4946566;29;20440;-79
2023/01/18 16:00:41;;;;;;;14.00;13.00;;;1.80;99.90;;;;;;4945475;28;20443;-78
2023/01/18 16:03:21;;;;;;;12.83;11.93;;;1.70;99.90;;;;;;4944202;29;20455;-78
2023/01/18 16:06:09;;;;;;;14.70;13.53;;;1.80;99.90;;;;;;4946427;29;20446;-79